Flight Track Log - Related Links

Times and Time Zones

All times are in EDT time to prevent confusion due to time zone crossing. See the N721CT flight status page for this flight to view local times or setup timezone preferences in your user account.

Time Position Orientation Groundspeed Altitude Reporting Facility
EDT Latitude Longitude Course Direction KTS MPH feet Rate Location/Type
Mon 05:45:00 PM 32.9002 -96.8567 350° North  Level FlightAware Approximate
Mon 05:45:34 PM 32.8833 -96.8833 350° North 75 86 2,400  Level Dallas / Fort Worth TRACON
Mon 05:46:34 PM 32.9000 -96.8833 360° North 80 92 3,000 316 Climbing Dallas / Fort Worth TRACON
Mon 05:47:28 PM 32.9333 -96.8833 360° North 114 131 3,000 34 Level Dallas / Fort Worth TRACON
Mon 05:49:28 PM 33.0000 -96.8667 12° North 105 121 3,100 183 Climbing Dallas / Fort Worth TRACON
Mon 05:52:00 PM 33.0414 -96.8925 349° North  Level FlightAware Approximate
Mon 05:53:28 PM 33.0994 -96.8678 349° North 97 112 4,100  Level Fort Worth Center
Mon 05:54:28 PM 33.1286 -96.8653 North 111 128 4,000 -50 Descending Fort Worth Center
Mon 05:55:28 PM 33.1642 -96.8625 North 111 128 4,000  Level Fort Worth Center
Mon 05:57:28 PM 33.2267 -96.8522 North 105 121 4,000 200 Level Fort Worth Center
Mon 05:58:28 PM 33.2475 -96.8494 North 100 115 4,600 500 Climbing Fort Worth Center
Mon 05:59:28 PM 33.2767 -96.8469 North 85 98 5,000 100 Climbing Fort Worth Center
Mon 06:01:00 PM 33.3151 -96.8772 327° Northwest  Level FlightAware Approximate
Mon 06:02:28 PM 33.3664 -96.8314 327° Northwest 110 127 5,000  Level Fort Worth Center
Mon 06:03:28 PM 33.4019 -96.8286 North 110 127 5,000 67 Level Fort Worth Center
Mon 06:05:28 PM 33.4644 -96.8158 10° North 110 127 5,200 67 Climbing Fort Worth Center
Mon 06:06:28 PM 33.4917 -96.8058 17° North 104 120 5,200 -100 Level Fort Worth Center
Mon 06:07:28 PM 33.5228 -96.7956 15° North 104 120 5,000 -50 Descending Fort Worth Center
Mon 06:08:28 PM 33.5458 -96.7903 11° North 99 114 5,100 50 Climbing Fort Worth Center
Mon 06:09:28 PM 33.5750 -96.7828 12° North 93 107 5,100  Level Fort Worth Center
Mon 06:11:00 PM 33.6210 -96.7721 11° North  Level FlightAware Approximate
Mon 06:11:28 PM 33.6250 -96.7675 11° North 87 100 5,100  Level Fort Worth Center
Mon 06:12:28 PM 33.6478 -96.7597 16° North 87 100 5,100  Level Fort Worth Center
Mon 06:13:28 PM 33.6750 -96.7519 13° North 87 100 5,100 -20 Level Fort Worth Center
Mon 06:15:00 PM 33.7212 -96.7422 10° North  Level FlightAware Approximate
Mon 06:17:28 PM 33.7750 -96.7164 10° North 87 100 5,000  Level Fort Worth Center
Mon 06:18:28 PM 33.7958 -96.7086 17° North 87 100 5,100  Climbing Fort Worth Center
Mon 06:19:28 PM 33.8250 -96.7033 North 87 100 5,000 -50 Descending Fort Worth Center
Mon 06:20:28 PM 33.8458 -96.6958 17° North 87 100 5,000  Level Fort Worth Center
Mon 06:22:00 PM 33.9319 -96.6977 10° North  Level FlightAware Approximate
Mon 06:22:28 PM 33.8978 -96.6828 12° North 87 100 5,000  Level Fort Worth Center
Mon 06:24:28 PM 33.9292 -96.6750 12° North 87 100 5,000  Level Fort Worth Center
Mon 06:27:00 PM 33.9756 -96.6672 North  Level FlightAware Approximate
Mon 06:27:28 PM 33.9292 -96.6750 North 87 100 5,000  Level Fort Worth Center
Mon 06:28:28 PM 34.0542 -96.6339 15° North 119 137 5,000  Level Fort Worth Center
Mon 06:30:00 PM 34.1008 -96.6278 North  Level FlightAware Approximate
Mon 06:30:28 PM 34.1019 -96.6133 North 89 102 5,000  Level Fort Worth Center
Mon 06:32:00 PM 34.1487 -96.6087 North  Level FlightAware Approximate
Mon 06:32:28 PM 34.1519 -96.6003 North 89 102 5,000  Level Fort Worth Center
Mon 06:33:28 PM 34.1747 -96.5950 11° North 89 102 5,000  Level Fort Worth Center
Mon 06:34:28 PM 34.2019 -96.5847 17° North 89 102 5,000  Level Fort Worth Center
Mon 06:35:28 PM 34.2289 -96.5769 13° North 89 102 5,000  Level Fort Worth Center
Mon 06:36:28 PM 34.2539 -96.5692 14° North 89 102 5,000  Level Fort Worth Center
Mon 06:37:28 PM 34.2789 -96.5614 14° North 89 102 5,000  Level Fort Worth Center
Mon 06:38:28 PM 34.3039 -96.5536 14° North 89 102 5,000  Level Fort Worth Center
Mon 06:40:00 PM 34.3507 -96.5559 358° North  Level FlightAware Approximate
Mon 06:40:28 PM 34.3539 -96.5356 358° North 89 102 5,000  Level Fort Worth Center
Mon 06:41:28 PM 34.3789 -96.5278 14° North 89 102 5,100  Climbing Fort Worth Center
Mon 06:42:28 PM 34.4017 -96.5200 16° North 89 102 5,000 -50 Descending Fort Worth Center
Mon 06:43:28 PM 34.4289 -96.5097 17° North 89 102 5,000  Level Fort Worth Center
Mon 06:44:28 PM 34.4517 -96.5019 16° North 89 102 5,000  Level Fort Worth Center
Mon 06:45:28 PM 34.4767 -96.4967 10° North 89 102 5,000  Level Fort Worth Center
Mon 06:46:28 PM 34.5017 -96.4861 19° North 89 102 5,000  Level Fort Worth Center
Mon 06:47:28 PM 34.5267 -96.4808 10° North 89 102 5,000 50 Level Fort Worth Center
Mon 06:48:28 PM 34.5497 -96.4756 11° North 84 97 5,100  Climbing Fort Worth Center
Mon 06:49:28 PM 34.5767 -96.4653 17° North 84 97 5,000 -50 Descending Fort Worth Center
Mon 06:50:28 PM 34.6036 -96.4547 18° North 89 102 5,000  Level Fort Worth Center
Mon 06:51:28 PM 34.6328 -96.4469 12° North 100 115 5,000  Level Fort Worth Center
Mon 06:52:28 PM 34.6600 -96.4392 13° North 100 115 5,000  Level Fort Worth Center
Mon 06:53:28 PM 34.6892 -96.4286 17° North 105 121 5,000  Level Fort Worth Center
Mon 06:54:28 PM 34.7181 -96.4233 North 105 121 5,000  Level Fort Worth Center
Mon 06:56:19 PM 34.7650 -96.4025 20° North 101 116 5,000  Level Kansas City Center
Mon 06:57:21 PM 34.7942 -96.3936 14° North 104 120 5,000 48 Level Kansas City Center
Mon 06:58:23 PM 34.8217 -96.3817 20° North 105 121 5,100  Climbing Kansas City Center
Mon 06:59:28 PM 34.8597 -96.3708 13° North 105 121 5,000 -32 Descending Fort Worth Center
Mon 07:01:28 PM 34.9147 -96.3494 18° North 108 124 5,000 25 Level Kansas City Center
Mon 07:03:32 PM 34.9706 -96.3331 14° North 104 120 5,100 24 Climbing Kansas City Center
Mon 07:05:00 PM 35.0114 -96.3105 24° Northeast  Level FlightAware Approximate
Mon 07:05:36 PM 35.0322 -96.3111 24° Northeast 104 120 5,100  Level Kansas City Center
Mon 07:06:28 PM 35.0531 -96.3078 North 105 121 5,000  Descending Fort Worth Center
Mon 07:07:28 PM 35.0844 -96.3022 North 105 121 5,100  Climbing Fort Worth Center
Mon 07:08:28 PM 35.1092 -96.2969 10° North 105 121 5,000  Descending Fort Worth Center
Mon 07:09:28 PM 35.1406 -96.2839 19° North 105 121 5,100  Climbing Fort Worth Center
Mon 07:10:28 PM 35.1697 -96.2758 13° North 105 121 5,000 -50 Descending Fort Worth Center
Mon 07:11:28 PM 35.1967 -96.2653 18° North 105 121 5,000  Level Fort Worth Center
Mon 07:12:28 PM 35.2236 -96.2547 18° North 105 121 5,000  Level Fort Worth Center
Mon 07:13:28 PM 35.2506 -96.2467 14° North 105 121 5,000  Level Fort Worth Center
Mon 07:14:28 PM 35.2797 -96.2336 20° North 105 121 5,000  Level Fort Worth Center
Mon 07:16:58 PM 35.3483 -96.2097 16° North 105 121 5,000  Level Kansas City Center
Mon 07:18:00 PM 35.3691 -96.1805 49° Northeast  Level FlightAware Approximate
Mon 07:20:04 PM 35.4389 -96.1803 36° Northeast 106 122 5,000  Level Kansas City Center
Mon 07:21:06 PM 35.4667 -96.1722 13° North 105 121 5,000  Level Kansas City Center
Mon 07:22:08 PM 35.4961 -96.1636 13° North 107 123 5,000  Level Kansas City Center
Mon 07:24:12 PM 35.5594 -96.1422 15° North 109 125 5,000  Level Kansas City Center
Mon 07:25:00 PM 35.5267 -95.9986 36° Northeast  Level FlightAware Approximate
Mon 07:25:14 PM 35.5875 -96.1328 15° North 107 123 5,000  Level Kansas City Center
Mon 07:26:16 PM 35.6164 -96.1247 13° North 107 123 5,100  Climbing Kansas City Center
Mon 07:27:18 PM 35.6439 -96.1139 18° North 106 122 5,000  Descending Kansas City Center
Mon 07:27:35 PM 35.6561 -96.1106 12° North 110 127 5,100 78 Climbing Kansas City Center
Mon 07:28:35 PM 35.6847 -96.1017 14° North 108 124 5,100 -57 Level Kansas City Center
Mon 07:29:21 PM 35.7019 -96.0939 20° North 108 124 5,000  Descending Kansas City Center
Mon 07:30:23 PM 35.7353 -96.0800 19° North 107 123 5,100  Climbing Kansas City Center
Mon 07:31:25 PM 35.7653 -96.0708 14° North 108 124 5,000 -32 Descending Kansas City Center
Mon 07:33:29 PM 35.8225 -96.0497 17° North 107 123 5,000 -160 Level Kansas City Center
Mon 07:34:33 PM 35.8556 -96.0389 15° North 114 131 4,500 -581 Descending Kansas City Center
Mon 07:35:33 PM 35.8836 -96.0294 15° North 113 130 3,800 -645 Descending Kansas City Center
Mon 07:36:34 PM 35.9150 -96.0175 17° North 117 135 3,200 -738 Descending Kansas City Center
Mon 07:37:35 PM 35.9539 -96.0083 11° North 119 137 2,300 -689 Descending Kansas City Center
Mon 07:38:36 PM 35.9806 -96.0022 11° North 100 115 1,800 -393 Descending Kansas City Center
Mon 07:39:37 PM 36.0031 -95.9967 11° North 81 93 1,500 -381 Descending Kansas City Center
Mon 07:40:42 PM 36.0222 -95.9892 18° North 82 94 1,000  Descending Kansas City Center
Mon 07:42:00 PM 36.0333 -95.9833 332° Northwest  Level FlightAware Approximate
Mon 07:45:11 PM 36.0561 -95.9797 332° Northwest 73 84 1,500  Level Kansas City Center
Mon 07:45:59 PM 36.0711 -95.9828 351° North 90 104 1,800 115 Climbing Kansas City Center
Mon 07:47:48 PM 36.0317 -96.0111 210° Southwest 111 128 1,800 -47 Level Kansas City Center
Mon 07:48:07 PM 36.0269 -96.0111 180° South 102 117 1,700 -197 Descending Kansas City Center
Mon 07:48:49 PM 36.0142 -96.0031 153° Southeast 92 106 1,600 -295 Descending Kansas City Center
Mon 07:49:00 PM 36.0396 -95.9846 332° Northwest  Level Estimated
Mon 07:49:08 PM 36.0153 -95.9950 80° East 105 121 1,400  Level Kansas City Center
Mon 07:50:00 PM 36.0333 -95.9833 332° Northwest  Level FlightAware Approximate
Mon 07:50:10 PM 36.0286 -95.9881 23° Northeast 90 104 1,000  Level Kansas City Center
Mon 07:54:52 PM 36.0586 -95.9819 North 87 100 1,500 60 Climbing Kansas City Center
Mon 07:56:48 PM 36.0228 -95.9814 179° South 91 105 1,400 -52 Descending Kansas City Center

Login

Don't have an account? Register now (free) for customized features, flight alerts, and more!